Time;durP1;ratioP1;P1;durP2;ratioP2;P2;SDS_P1;SDS_P2;PMS_P1;PMS_P2;Temp;Humidity;BMP_temperature;BMP_pressure;BME280_temperature;BME280_humidity;BME280_pressure;Samples;Min_cycle;Max_cycle;Signal;HPM_P1;HPM_P2
2022/03/16 00:01:54;;;;;;;51.70;34.08;;;;;;;;;;5051489;28;20033;-62
2022/03/16 00:04:20;;;;;;;49.38;32.25;;;;;;;;;;5052243;28;20037;-61
2022/03/16 00:06:47;;;;;;;50.20;32.45;;;;;;;;;;5052001;28;20114;-62
2022/03/16 00:09:14;;;;;;;56.40;34.55;;;;;;;;;;5052827;28;20382;-62
2022/03/16 00:11:40;;;;;;;48.85;31.42;;;;;;;;;;5052274;28;20041;-65
2022/03/16 00:14:06;;;;;;;45.90;31.50;;;;;;;;;;5051444;28;20033;-65
2022/03/16 00:16:32;;;;;;;52.95;33.63;;;;;;;;;;5051156;28;20072;-62
2022/03/16 00:18:58;;;;;;;48.47;29.42;;;;;;;;;;5052712;28;20063;-62
2022/03/16 00:21:24;;;;;;;51.20;33.15;;;;;;;;;;5052817;28;20421;-62
2022/03/16 00:23:50;;;;;;;54.60;33.42;;;;;;;;;;5052766;28;20529;-64
2022/03/16 00:26:17;;;;;;;44.47;31.00;;;;;;;;;;5051996;28;20528;-64
2022/03/16 00:28:43;;;;;;;46.67;29.42;;;;;;;;;;5033727;28;20048;-63
2022/03/16 00:31:09;;;;;;;51.28;31.88;;;;;;;;;;5051895;28;20098;-63
2022/03/16 00:33:35;;;;;;;49.60;31.45;;;;;;;;;;5054784;28;20091;-64
2022/03/16 00:36:01;;;;;;;46.92;30.67;;;;;;;;;;5056329;28;20040;-65
2022/03/16 00:38:27;;;;;;;47.13;31.67;;;;;;;;;;5054664;28;20072;-63
2022/03/16 00:40:53;;;;;;;50.22;33.85;;;;;;;;;;5054120;28;20048;-64
2022/03/16 00:43:20;;;;;;;50.83;30.33;;;;;;;;;;5055035;28;20436;-63
2022/03/16 00:45:46;;;;;;;40.00;27.27;;;;;;;;;;5056361;28;20114;-64
2022/03/16 00:48:12;;;;;;;54.00;31.65;;;;;;;;;;5054894;28;20072;-64
2022/03/16 00:50:38;;;;;;;49.40;30.90;;;;;;;;;;5054627;28;20116;-63
2022/03/16 00:53:04;;;;;;;46.80;31.52;;;;;;;;;;5037628;28;20045;-63
2022/03/16 00:55:30;;;;;;;46.70;30.00;;;;;;;;;;5054595;28;20076;-63
2022/03/16 00:57:56;;;;;;;46.85;31.02;;;;;;;;;;5055002;28;20127;-64
2022/03/16 01:00:22;;;;;;;79.50;43.00;;;;;;;;;;5054533;28;20504;-63
2022/03/16 01:02:48;;;;;;;104.60;51.58;;;;;;;;;;5054960;28;20492;-64
2022/03/16 01:05:14;;;;;;;65.03;37.72;;;;;;;;;;5055309;28;20124;-64
2022/03/16 01:07:41;;;;;;;61.33;37.30;;;;;;;;;;5054887;28;20086;-60
2022/03/16 01:10:07;;;;;;;69.13;40.50;;;;;;;;;;5055475;28;20045;-61
2022/03/16 01:12:33;;;;;;;74.45;40.72;;;;;;;;;;5063777;22;20041;-62
2022/03/16 01:14:59;;;;;;;52.28;33.20;;;;;;;;;;5037560;28;20136;-62
2022/03/16 01:17:25;;;;;;;67.78;40.65;;;;;;;;;;5055476;28;20041;-62
2022/03/16 01:19:51;;;;;;;92.63;48.28;;;;;;;;;;5055322;28;20041;-62
2022/03/16 01:22:17;;;;;;;52.30;32.83;;;;;;;;;;5055016;28;20067;-62
2022/03/16 01:24:43;;;;;;;55.88;35.42;;;;;;;;;;5054755;28;20116;-62
2022/03/16 01:27:09;;;;;;;47.50;29.90;;;;;;;;;;5055070;28;20037;-62
2022/03/16 01:29:36;;;;;;;50.30;31.63;;;;;;;;;;5053978;28;20048;-62
2022/03/16 01:32:02;;;;;;;55.67;33.13;;;;;;;;;;5054011;28;20465;-64
2022/03/16 01:34:28;;;;;;;47.63;29.38;;;;;;;;;;5055327;28;20456;-65
2022/03/16 01:36:54;;;;;;;68.38;40.03;;;;;;;;;;5037133;28;20044;-62
2022/03/16 01:39:21;;;;;;;58.47;34.47;;;;;;;;;;5054575;28;20045;-62
2022/03/16 01:41:47;;;;;;;63.45;37.60;;;;;;;;;;5053874;28;20041;-62
2022/03/16 01:44:13;;;;;;;80.47;43.58;;;;;;;;;;5053989;28;20097;-62
2022/03/16 01:46:39;;;;;;;73.05;41.88;;;;;;;;;;5054572;28;20252;-62
2022/03/16 01:49:05;;;;;;;59.35;37.20;;;;;;;;;;5036967;28;20037;-62
2022/03/16 01:51:32;;;;;;;60.03;35.80;;;;;;;;;;5055597;28;20033;-62
2022/03/16 01:53:58;;;;;;;56.35;32.97;;;;;;;;;;5037209;28;20051;-63
2022/03/16 01:56:24;;;;;;;51.78;33.17;;;;;;;;;;5037515;28;20391;-61
2022/03/16 01:58:50;;;;;;;52.83;32.95;;;;;;;;;;5036443;28;20215;-60
2022/03/16 02:01:17;;;;;;;49.40;32.20;;;;;;;;;;5054338;28;20037;-60
2022/03/16 02:03:43;;;;;;;49.83;31.55;;;;;;;;;;5035791;28;20068;-62
2022/03/16 02:06:10;;;;;;;46.72;29.90;;;;;;;;;;5054105;28;20057;-59
2022/03/16 02:08:37;;;;;;;44.78;30.30;;;;;;;;;;5053972;28;20126;-60
2022/03/16 02:11:03;;;;;;;50.00;32.33;;;;;;;;;;5048440;28;20044;-61
2022/03/16 02:13:29;;;;;;;47.17;29.17;;;;;;;;;;5049626;28;20065;-60
2022/03/16 02:15:55;;;;;;;47.78;30.73;;;;;;;;;;5053915;28;20066;-60
2022/03/16 02:18:22;;;;;;;41.97;28.50;;;;;;;;;;5054079;28;20048;-61
2022/03/16 02:20:49;;;;;;;55.00;31.50;;;;;;;;;;5053213;28;20052;-61
2022/03/16 02:23:16;;;;;;;47.15;30.20;;;;;;;;;;5053991;28;20044;-59
2022/03/16 02:25:52;;;;;;;55.13;33.65;;;;;;;;;;5053299;28;20044;-60
2022/03/16 02:28:18;;;;;;;57.75;34.63;;;;;;;;;;5054113;28;20071;-61
2022/03/16 02:30:45;;;;;;;45.38;29.25;;;;;;;;;;5053095;28;20044;-61
2022/03/16 02:33:11;;;;;;;46.30;30.00;;;;;;;;;;5035382;28;20383;-61
2022/03/16 02:35:37;;;;;;;41.22;27.73;;;;;;;;;;5053486;28;20029;-61
2022/03/16 02:38:04;;;;;;;45.10;28.40;;;;;;;;;;5053903;28;20033;-57
2022/03/16 02:40:30;;;;;;;45.08;27.80;;;;;;;;;;5053501;28;20115;-62
2022/03/16 02:42:56;;;;;;;48.10;29.95;;;;;;;;;;5053263;28;20033;-61
2022/03/16 02:45:22;;;;;;;38.83;26.23;;;;;;;;;;5052353;28;20116;-60
2022/03/16 02:47:48;;;;;;;41.47;27.10;;;;;;;;;;5053382;28;20053;-59
2022/03/16 02:50:19;;;;;;;51.45;32.15;;;;;;;;;;5053400;28;20098;-59
2022/03/16 02:52:46;;;;;;;42.67;30.30;;;;;;;;;;5052793;28;20398;-64
2022/03/16 02:55:13;;;;;;;39.65;27.35;;;;;;;;;;5052672;28;20461;-60
2022/03/16 02:57:39;;;;;;;51.72;32.15;;;;;;;;;;5053447;28;20379;-59
2022/03/16 03:00:06;;;;;;;42.10;26.80;;;;;;;;;;5053539;28;20037;-60
2022/03/16 03:02:32;;;;;;;39.80;25.25;;;;;;;;;;5052566;28;20033;-60
2022/03/16 03:04:58;;;;;;;44.15;28.58;;;;;;;;;;5052661;28;20045;-60
2022/03/16 03:07:24;;;;;;;44.83;29.10;;;;;;;;;;5049025;28;20037;-60
2022/03/16 03:09:50;;;;;;;41.20;27.20;;;;;;;;;;5053258;28;20543;-59
2022/03/16 03:12:17;;;;;;;36.08;24.92;;;;;;;;;;5052157;28;20041;-60
2022/03/16 03:14:43;;;;;;;38.28;26.45;;;;;;;;;;5034994;28;20045;-60
2022/03/16 03:17:10;;;;;;;41.22;26.67;;;;;;;;;;5052999;28;20040;-61
2022/03/16 03:19:36;;;;;;;39.03;26.50;;;;;;;;;;5053167;28;20040;-62
2022/03/16 03:22:05;;;;;;;34.25;24.65;;;;;;;;;;5052278;28;20090;-61
2022/03/16 03:24:32;;;;;;;31.33;23.35;;;;;;;;;;5052781;28;20041;-60
2022/03/16 03:26:58;;;;;;;31.48;21.58;;;;;;;;;;5053432;28;20048;-60
2022/03/16 03:29:24;;;;;;;26.38;20.73;;;;;;;;;;5052801;28;20067;-62
2022/03/16 03:31:50;;;;;;;24.13;19.27;;;;;;;;;;5052043;28;20044;-60
2022/03/16 03:34:16;;;;;;;24.50;19.42;;;;;;;;;;5035604;28;20128;-58
2022/03/16 03:36:43;;;;;;;33.45;20.08;;;;;;;;;;5052623;28;20029;-61
2022/03/16 03:39:09;;;;;;;24.88;18.88;;;;;;;;;;5052515;28;20033;-60
2022/03/16 03:41:36;;;;;;;23.48;19.50;;;;;;;;;;5052302;28;20063;-61
2022/03/16 03:44:02;;;;;;;26.88;18.42;;;;;;;;;;5047419;28;20390;-60
2022/03/16 03:46:28;;;;;;;22.40;18.77;;;;;;;;;;5052792;28;20561;-59
2022/03/16 03:48:54;;;;;;;20.85;16.35;;;;;;;;;;5051829;28;20032;-59
2022/03/16 03:51:20;;;;;;;21.20;18.15;;;;;;;;;;5052032;28;20072;-60
2022/03/16 03:53:46;;;;;;;25.02;20.40;;;;;;;;;;5052562;28;20051;-59
2022/03/16 03:56:13;;;;;;;25.33;18.95;;;;;;;;;;5035142;28;20379;-59
2022/03/16 03:58:39;;;;;;;29.35;21.40;;;;;;;;;;5051691;28;20045;-60
2022/03/16 04:01:06;;;;;;;25.73;20.08;;;;;;;;;;5052227;28;20041;-60
2022/03/16 04:03:32;;;;;;;29.25;21.85;;;;;;;;;;5053145;28;20087;-61
2022/03/16 04:06:01;;;;;;;26.85;21.35;;;;;;;;;;5053136;28;20048;-62
2022/03/16 04:08:27;;;;;;;29.27;22.88;;;;;;;;;;5038229;28;20067;-62
2022/03/16 04:10:53;;;;;;;32.70;21.17;;;;;;;;;;5056371;28;20037;-57
2022/03/16 04:13:19;;;;;;;24.00;19.48;;;;;;;;;;5055819;28;20110;-59
2022/03/16 04:15:46;;;;;;;28.67;21.45;;;;;;;;;;5056486;28;20044;-59
2022/03/16 04:18:12;;;;;;;27.10;20.73;;;;;;;;;;5056056;28;20551;-59
2022/03/16 04:20:38;;;;;;;31.40;22.67;;;;;;;;;;5055645;28;20396;-59
2022/03/16 04:23:04;;;;;;;29.35;21.58;;;;;;;;;;5055436;28;20047;-59
2022/03/16 04:25:30;;;;;;;35.17;25.02;;;;;;;;;;5056249;28;20051;-58
2022/03/16 04:27:56;;;;;;;27.13;21.13;;;;;;;;;;5056305;28;20071;-59
2022/03/16 04:30:23;;;;;;;29.38;21.10;;;;;;;;;;5056407;28;20036;-57
2022/03/16 04:32:51;;;;;;;31.20;21.70;;;;;;;;;;5055231;28;20041;-59
2022/03/16 04:35:18;;;;;;;31.40;22.88;;;;;;;;;;5056183;28;20048;-59
2022/03/16 04:37:44;;;;;;;26.95;20.40;;;;;;;;;;5055947;28;20041;-59
2022/03/16 04:40:11;;;;;;;31.63;23.10;;;;;;;;;;5055674;28;20033;-59
2022/03/16 04:42:37;;;;;;;31.27;22.25;;;;;;;;;;5057341;28;20037;-59
2022/03/16 04:45:03;;;;;;;33.35;24.15;;;;;;;;;;5055996;28;20045;-59
2022/03/16 04:47:29;;;;;;;40.72;26.25;;;;;;;;;;5055777;28;20095;-59
2022/03/16 04:49:55;;;;;;;32.72;24.70;;;;;;;;;;5055331;28;20076;-57
2022/03/16 04:52:22;;;;;;;36.72;24.80;;;;;;;;;;5055191;28;20417;-59
2022/03/16 04:54:48;;;;;;;36.22;25.05;;;;;;;;;;5055917;28;20084;-59
2022/03/16 04:57:15;;;;;;;33.90;23.80;;;;;;;;;;5055844;28;20402;-59
2022/03/16 04:59:41;;;;;;;49.05;32.63;;;;;;;;;;5055151;28;20053;-59
2022/03/16 05:02:07;;;;;;;40.45;28.45;;;;;;;;;;5054986;28;20040;-59
2022/03/16 05:04:33;;;;;;;41.42;27.65;;;;;;;;;;5055663;28;20040;-59
2022/03/16 05:06:59;;;;;;;40.65;26.45;;;;;;;;;;5055426;28;20044;-60
2022/03/16 05:09:25;;;;;;;35.80;25.20;;;;;;;;;;5055464;28;20040;-59
2022/03/16 05:11:51;;;;;;;33.47;24.90;;;;;;;;;;5054662;28;20069;-59
2022/03/16 05:14:17;;;;;;;36.85;24.85;;;;;;;;;;5054952;28;20409;-60
2022/03/16 05:16:43;;;;;;;58.17;36.85;;;;;;;;;;5054276;28;20037;-59
2022/03/16 05:19:09;;;;;;;45.90;29.95;;;;;;;;;;5054174;28;20040;-59
2022/03/16 05:21:35;;;;;;;36.42;26.30;;;;;;;;;;5055261;28;20448;-59
2022/03/16 05:24:02;;;;;;;38.03;25.80;;;;;;;;;;5054284;28;20043;-59
2022/03/16 05:26:28;;;;;;;35.28;24.90;;;;;;;;;;5055251;28;20049;-59
2022/03/16 05:28:54;;;;;;;41.72;30.10;;;;;;;;;;5037103;28;20048;-58
2022/03/16 05:31:21;;;;;;;32.05;24.02;;;;;;;;;;5054334;28;20048;-57
2022/03/16 05:33:48;;;;;;;38.40;25.92;;;;;;;;;;5054486;28;20124;-59
2022/03/16 05:36:14;;;;;;;40.83;27.83;;;;;;;;;;5036614;28;20091;-59
2022/03/16 05:38:40;;;;;;;42.47;29.35;;;;;;;;;;5055222;28;20029;-59
2022/03/16 05:41:06;;;;;;;44.67;28.77;;;;;;;;;;5054158;28;20060;-59
2022/03/16 05:43:32;;;;;;;43.33;28.75;;;;;;;;;;5053966;28;20045;-59
2022/03/16 05:45:58;;;;;;;40.08;27.45;;;;;;;;;;5053496;28;20091;-59
2022/03/16 05:48:24;;;;;;;43.95;29.15;;;;;;;;;;5054420;28;20493;-59
2022/03/16 05:50:51;;;;;;;35.47;26.88;;;;;;;;;;5053532;28;20037;-59
2022/03/16 05:53:17;;;;;;;48.08;31.58;;;;;;;;;;5053401;28;20513;-60
2022/03/16 05:55:43;;;;;;;42.50;29.33;;;;;;;;;;5051672;28;20047;-60
2022/03/16 05:58:09;;;;;;;60.58;37.05;;;;;;;;;;5053072;28;20059;-60
2022/03/16 06:00:36;;;;;;;50.70;32.33;;;;;;;;;;5053322;28;20041;-60
2022/03/16 06:03:02;;;;;;;55.92;34.95;;;;;;;;;;5049140;28;20049;-60
2022/03/16 06:05:28;;;;;;;49.95;33.83;;;;;;;;;;5047271;28;20131;-60
2022/03/16 06:07:54;;;;;;;42.67;28.50;;;;;;;;;;5049234;28;20041;-60
2022/03/16 06:10:20;;;;;;;42.65;28.92;;;;;;;;;;5050806;28;20041;-62
2022/03/16 06:12:53;;;;;;;40.70;28.13;;;;;;;;;;5053904;28;20045;-61
2022/03/16 06:15:19;;;;;;;40.80;29.60;;;;;;;;;;5045765;28;20130;-61
2022/03/16 06:17:46;;;;;;;57.30;35.47;;;;;;;;;;5051908;28;20045;-61
2022/03/16 06:20:12;;;;;;;45.17;30.85;;;;;;;;;;5049925;28;20037;-61
2022/03/16 06:22:38;;;;;;;58.13;39.00;;;;;;;;;;5040604;28;20037;-61
2022/03/16 06:25:04;;;;;;;52.05;34.70;;;;;;;;;;5050953;28;20079;-60
2022/03/16 06:27:31;;;;;;;65.05;40.90;;;;;;;;;;5046010;28;21305;-60
2022/03/16 06:29:57;;;;;;;65.15;40.30;;;;;;;;;;5041783;28;20045;-60
2022/03/16 06:32:23;;;;;;;66.60;41.03;;;;;;;;;;5045903;28;20047;-61
2022/03/16 06:34:49;;;;;;;82.80;49.78;;;;;;;;;;5042517;28;20450;-63
2022/03/16 06:37:16;;;;;;;79.82;47.10;;;;;;;;;;5051895;28;20140;-63
2022/03/16 06:39:42;;;;;;;56.20;38.42;;;;;;;;;;5051314;28;20498;-66
2022/03/16 06:42:08;;;;;;;68.85;44.45;;;;;;;;;;5046606;28;20041;-64
2022/03/16 06:44:35;;;;;;;66.38;41.95;;;;;;;;;;5042844;28;20044;-64
2022/03/16 06:47:01;;;;;;;67.50;43.75;;;;;;;;;;5046867;28;20049;-64
2022/03/16 06:49:27;;;;;;;54.55;38.33;;;;;;;;;;5044842;28;20029;-63
2022/03/16 06:51:53;;;;;;;57.28;37.78;;;;;;;;;;5039973;28;20040;-64
2022/03/16 06:54:19;;;;;;;50.50;34.28;;;;;;;;;;5040018;28;20051;-65
2022/03/16 06:56:45;;;;;;;55.47;38.05;;;;;;;;;;5043085;28;20402;-65
2022/03/16 06:59:11;;;;;;;57.50;38.92;;;;;;;;;;5043900;28;20033;-64
2022/03/16 07:01:38;;;;;;;56.50;39.15;;;;;;;;;;5042572;28;20243;-65
2022/03/16 07:04:04;;;;;;;60.17;39.33;;;;;;;;;;5046634;28;20049;-65
2022/03/16 07:06:30;;;;;;;45.00;32.58;;;;;;;;;;5043751;28;20123;-64
2022/03/16 07:08:56;;;;;;;58.13;38.83;;;;;;;;;;5044932;28;20040;-65
2022/03/16 07:11:22;;;;;;;62.15;40.67;;;;;;;;;;5028276;28;20124;-65
2022/03/16 07:16:33;;;;;;;52.00;36.25;;;;;;;;;;5043218;28;20033;-61
2022/03/16 07:19:00;;;;;;;44.50;32.70;;;;;;;;;;5024752;28;20124;-60
2022/03/16 07:21:26;;;;;;;49.13;35.58;;;;;;;;;;5041345;28;20033;-65
2022/03/16 07:23:52;;;;;;;48.88;33.42;;;;;;;;;;5049497;28;20516;-63
2022/03/16 07:26:18;;;;;;;45.15;33.65;;;;;;;;;;5051015;28;20051;-65
2022/03/16 07:28:44;;;;;;;50.25;35.88;;;;;;;;;;5051109;28;20128;-65
2022/03/16 07:31:10;;;;;;;52.03;36.50;;;;;;;;;;5050415;28;20052;-65
2022/03/16 07:33:37;;;;;;;49.30;36.15;;;;;;;;;;5050825;28;20147;-65
2022/03/16 07:36:04;;;;;;;48.58;35.40;;;;;;;;;;5050950;28;20387;-65
2022/03/16 07:38:30;;;;;;;48.22;35.97;;;;;;;;;;5049902;28;20119;-65
2022/03/16 07:40:56;;;;;;;47.47;34.67;;;;;;;;;;5049869;28;20051;-65
2022/03/16 07:43:22;;;;;;;45.72;32.53;;;;;;;;;;5031633;28;20051;-65
2022/03/16 07:45:48;;;;;;;47.03;35.40;;;;;;;;;;5032337;28;20436;-60
2022/03/16 07:48:14;;;;;;;54.15;36.05;;;;;;;;;;5050108;28;20080;-65
2022/03/16 07:50:40;;;;;;;45.50;34.60;;;;;;;;;;5050204;28;20051;-62
2022/03/16 07:53:09;;;;;;;44.75;32.50;;;;;;;;;;5048827;28;20440;-62
2022/03/16 07:55:35;;;;;;;45.00;32.85;;;;;;;;;;5050525;28;20040;-62
2022/03/16 07:58:01;;;;;;;38.90;31.05;;;;;;;;;;5050235;28;20393;-62
2022/03/16 08:00:28;;;;;;;44.08;30.40;;;;;;;;;;5050299;28;20761;-62
2022/03/16 08:02:54;;;;;;;42.25;32.20;;;;;;;;;;5031159;28;20076;-62
2022/03/16 08:05:24;;;;;;;42.80;32.08;;;;;;;;;;5048314;28;20421;-63
2022/03/16 08:07:50;;;;;;;44.40;33.13;;;;;;;;;;5041926;28;20052;-63
2022/03/16 08:10:16;;;;;;;38.53;30.35;;;;;;;;;;5041242;28;20076;-63
2022/03/16 08:12:43;;;;;;;41.50;31.20;;;;;;;;;;5049480;28;20040;-63
2022/03/16 08:15:09;;;;;;;40.03;31.00;;;;;;;;;;5028909;28;20124;-62
2022/03/16 08:17:35;;;;;;;38.15;28.88;;;;;;;;;;5029411;28;20044;-62
2022/03/16 08:20:01;;;;;;;37.67;29.88;;;;;;;;;;5038939;28;20116;-61
2022/03/16 08:22:29;;;;;;;37.03;28.73;;;;;;;;;;5037458;28;20575;-61
2022/03/16 08:24:55;;;;;;;37.00;27.40;;;;;;;;;;5044665;28;20033;-62
2022/03/16 08:27:22;;;;;;;35.17;27.67;;;;;;;;;;5050833;28;20518;-63
2022/03/16 08:29:48;;;;;;;35.15;25.70;;;;;;;;;;5050043;28;20049;-63
2022/03/16 08:32:14;;;;;;;36.40;25.02;;;;;;;;;;5051064;28;20512;-62
2022/03/16 08:34:40;;;;;;;30.17;23.52;;;;;;;;;;5050029;28;20036;-61
2022/03/16 08:37:07;;;;;;;31.38;25.00;;;;;;;;;;5051723;28;20171;-61
2022/03/16 08:39:33;;;;;;;32.85;24.95;;;;;;;;;;5050881;28;20037;-61
2022/03/16 08:41:59;;;;;;;33.25;25.70;;;;;;;;;;5050992;28;20033;-61
2022/03/16 08:44:25;;;;;;;27.27;23.85;;;;;;;;;;5051552;28;20075;-61
2022/03/16 08:46:52;;;;;;;28.20;22.98;;;;;;;;;;5050807;28;20041;-62
2022/03/16 08:49:18;;;;;;;29.70;23.27;;;;;;;;;;5050599;28;20045;-63
2022/03/16 08:51:44;;;;;;;31.02;23.92;;;;;;;;;;5050901;28;20099;-62
2022/03/16 08:54:10;;;;;;;29.83;23.60;;;;;;;;;;5053154;28;20497;-62
2022/03/16 08:56:36;;;;;;;28.42;22.40;;;;;;;;;;5054089;28;20029;-63
2022/03/16 08:59:03;;;;;;;26.30;23.33;;;;;;;;;;5055640;28;20112;-62
2022/03/16 09:01:29;;;;;;;26.70;22.48;;;;;;;;;;5054686;28;20486;-63
2022/03/16 09:03:55;;;;;;;27.42;22.35;;;;;;;;;;5054050;28;20459;-62
2022/03/16 09:06:21;;;;;;;25.98;21.95;;;;;;;;;;5054740;28;20073;-63
2022/03/16 09:08:47;;;;;;;23.95;20.70;;;;;;;;;;5053795;28;20845;-65
2022/03/16 09:11:13;;;;;;;23.30;20.80;;;;;;;;;;5054156;28;20562;-61
2022/03/16 09:13:40;;;;;;;23.92;20.05;;;;;;;;;;5052600;28;20524;-63
2022/03/16 09:16:06;;;;;;;26.45;20.42;;;;;;;;;;5052751;28;20033;-62
2022/03/16 09:18:33;;;;;;;21.15;17.58;;;;;;;;;;5053816;28;20045;-63
2022/03/16 09:21:01;;;;;;;19.70;17.10;;;;;;;;;;5054238;28;20119;-62
2022/03/16 09:23:31;;;;;;;19.13;17.02;;;;;;;;;;5052936;28;20379;-63
2022/03/16 09:25:58;;;;;;;21.08;16.58;;;;;;;;;;5052864;28;20047;-61
2022/03/16 09:28:24;;;;;;;20.48;17.15;;;;;;;;;;5053495;28;20120;-63
2022/03/16 09:30:50;;;;;;;19.02;16.55;;;;;;;;;;5054186;28;20049;-63
2022/03/16 09:33:17;;;;;;;19.38;16.08;;;;;;;;;;5053949;28;20045;-63
2022/03/16 09:35:44;;;;;;;19.42;17.42;;;;;;;;;;5052884;28;20116;-61
2022/03/16 09:38:10;;;;;;;18.20;16.30;;;;;;;;;;5053339;28;20041;-62
2022/03/16 09:40:36;;;;;;;19.58;16.25;;;;;;;;;;5034847;28;20051;-63
2022/03/16 09:43:07;;;;;;;19.73;16.25;;;;;;;;;;5034944;28;20048;-62
2022/03/16 09:45:39;;;;;;;18.60;15.90;;;;;;;;;;5052734;28;20514;-63
2022/03/16 09:48:05;;;;;;;19.38;16.20;;;;;;;;;;5052668;28;20106;-62
2022/03/16 09:50:31;;;;;;;19.50;16.80;;;;;;;;;;5034305;28;20047;-62
2022/03/16 09:52:57;;;;;;;18.98;15.98;;;;;;;;;;5052541;28;20045;-63
2022/03/16 09:55:23;;;;;;;18.45;16.13;;;;;;;;;;5052485;28;20184;-62
2022/03/16 09:57:49;;;;;;;18.23;15.63;;;;;;;;;;5053156;28;20123;-63
2022/03/16 10:00:17;;;;;;;18.33;16.02;;;;;;;;;;5053369;28;20040;-63
2022/03/16 10:02:43;;;;;;;18.00;15.00;;;;;;;;;;5033768;28;20042;-63
2022/03/16 10:05:10;;;;;;;18.92;15.70;;;;;;;;;;5038063;28;20029;-65
2022/03/16 10:07:37;;;;;;;18.00;15.52;;;;;;;;;;5052754;28;20476;-66
2022/03/16 10:15:35;;;;;;;16.52;14.52;;;;;;;;;;5052140;28;20072;-64
2022/03/16 10:18:03;;;;;;;17.92;14.90;;;;;;;;;;5052847;28;20048;-66
2022/03/16 10:20:31;;;;;;;16.58;14.82;;;;;;;;;;5051888;28;20040;-66
2022/03/16 10:23:14;;;;;;;16.10;14.40;;;;;;;;;;5051352;28;20045;-67
2022/03/16 10:25:47;;;;;;;17.02;14.23;;;;;;;;;;5051914;28;20069;-68
2022/03/16 10:28:14;;;;;;;16.75;14.10;;;;;;;;;;5051210;28;20044;-67
2022/03/16 10:30:52;;;;;;;17.58;13.65;;;;;;;;;;5049015;28;20048;-67
2022/03/16 10:33:19;;;;;;;17.25;14.57;;;;;;;;;;5046316;28;20080;-67
2022/03/16 10:35:54;;;;;;;20.10;14.35;;;;;;;;;;5031838;28;20041;-66
2022/03/16 10:38:22;;;;;;;16.80;14.18;;;;;;;;;;5051869;28;20048;-66
2022/03/16 10:40:49;;;;;;;18.55;14.65;;;;;;;;;;5051530;28;20570;-66
2022/03/16 10:49:07;;;;;;;14.45;12.48;;;;;;;;;;5050673;28;20048;-66
2022/03/16 10:51:34;;;;;;;15.07;11.48;;;;;;;;;;5051689;28;20486;-67
2022/03/16 10:54:02;;;;;;;15.52;12.70;;;;;;;;;;5050524;28;20051;-67
2022/03/16 10:56:28;;;;;;;15.60;13.13;;;;;;;;;;5051268;28;20123;-67
2022/03/16 10:58:54;;;;;;;15.27;12.63;;;;;;;;;;5050276;28;20401;-67
2022/03/16 11:01:22;;;;;;;14.20;12.25;;;;;;;;;;5033713;28;20448;-66
2022/03/16 11:03:49;;;;;;;14.73;12.65;;;;;;;;;;5051132;28;20409;-68
2022/03/16 11:06:16;;;;;;;14.82;12.75;;;;;;;;;;5051722;28;20072;-67
2022/03/16 11:08:43;;;;;;;14.45;12.52;;;;;;;;;;5051578;28;20040;-67
2022/03/16 11:13:55;;;;;;;14.75;12.25;;;;;;;;;;5050744;28;20045;-67
2022/03/16 11:16:21;;;;;;;13.35;11.57;;;;;;;;;;5050791;28;20055;-67
2022/03/16 11:18:51;;;;;;;16.55;12.93;;;;;;;;;;5051156;28;20394;-67
2022/03/16 11:21:21;;;;;;;15.20;12.43;;;;;;;;;;5051096;28;20141;-67
2022/03/16 11:26:45;;;;;;;15.30;13.60;;;;;;;;;;5051621;28;20049;-67
2022/03/16 11:29:17;;;;;;;15.52;12.45;;;;;;;;;;5050906;28;20045;-67
2022/03/16 11:31:43;;;;;;;15.55;12.88;;;;;;;;;;5049814;28;20537;-67
2022/03/16 11:34:11;;;;;;;14.90;13.00;;;;;;;;;;5047665;28;20037;-68
2022/03/16 11:36:40;;;;;;;14.50;13.00;;;;;;;;;;5050406;28;20494;-67
2022/03/16 11:39:20;;;;;;;17.10;14.25;;;;;;;;;;5045565;28;20037;-69
2022/03/16 11:41:56;;;;;;;17.60;13.80;;;;;;;;;;5049224;28;20037;-68
2022/03/16 11:44:25;;;;;;;16.27;13.52;;;;;;;;;;5050464;28;20080;-67
2022/03/16 11:46:52;;;;;;;15.75;13.57;;;;;;;;;;5015949;28;20041;-67
2022/03/16 11:49:29;;;;;;;16.77;15.02;;;;;;;;;;5051043;28;20049;-68
2022/03/16 11:52:02;;;;;;;15.77;13.63;;;;;;;;;;5051308;28;20083;-68
2022/03/16 11:54:52;;;;;;;16.55;13.98;;;;;;;;;;5050820;28;20102;-68
2022/03/16 11:57:35;;;;;;;16.45;13.90;;;;;;;;;;5038612;28;20071;-67
2022/03/16 12:00:28;;;;;;;15.05;13.40;;;;;;;;;;5042958;28;20044;-67
2022/03/16 12:03:00;;;;;;;15.10;13.48;;;;;;;;;;5046404;28;20077;-68
2022/03/16 12:05:30;;;;;;;14.45;12.93;;;;;;;;;;5050552;28;20076;-68
2022/03/16 12:08:12;;;;;;;14.65;13.15;;;;;;;;;;5050267;28;20486;-67
2022/03/16 12:12:50;;;;;;;14.52;12.85;;;;;;;;;;5050467;28;20045;-67
2022/03/16 12:13:34;;;;;;;15.23;13.63;;;;;;;;;;5044068;28;20111;-67
2022/03/16 12:16:06;;;;;;;16.40;13.00;;;;;;;;;;5041532;28;20036;-67
2022/03/16 12:18:39;;;;;;;14.70;12.90;;;;;;;;;;5050492;28;20037;-68
2022/03/16 12:21:10;;;;;;;15.05;13.55;;;;;;;;;;5050062;28;20120;-69
2022/03/16 12:23:42;;;;;;;15.65;12.93;;;;;;;;;;5049172;28;20041;-67
2022/03/16 12:26:08;;;;;;;13.02;11.65;;;;;;;;;;5032421;28;20494;-66
2022/03/16 12:31:19;;;;;;;13.27;11.68;;;;;;;;;;5054819;28;20401;-66
2022/03/16 12:33:52;;;;;;;14.25;12.85;;;;;;;;;;5054164;28;20079;-66
2022/03/16 12:36:28;;;;;;;14.55;13.13;;;;;;;;;;5054868;28;20179;-66
2022/03/16 12:38:56;;;;;;;13.32;11.90;;;;;;;;;;5035746;28;20041;-67
2022/03/16 12:44:10;;;;;;;13.85;12.25;;;;;;;;;;5053759;28;20044;-66
2022/03/16 12:46:56;;;;;;;15.13;13.07;;;;;;;;;;5054738;28;20049;-64
2022/03/16 12:49:23;;;;;;;14.93;13.23;;;;;;;;;;5053310;28;20040;-64
2022/03/16 12:51:49;;;;;;;14.45;12.95;;;;;;;;;;5054217;28;20130;-65
2022/03/16 12:54:34;;;;;;;13.15;11.88;;;;;;;;;;5035866;28;20041;-64
2022/03/16 12:57:03;;;;;;;13.65;12.25;;;;;;;;;;5052910;28;20037;-66
2022/03/16 12:59:52;;;;;;;14.15;12.43;;;;;;;;;;5053718;28;20127;-65
2022/03/16 13:02:20;;;;;;;14.43;12.98;;;;;;;;;;5041129;28;20080;-66
2022/03/16 13:04:51;;;;;;;15.52;12.15;;;;;;;;;;5053409;28;20064;-65
2022/03/16 13:07:18;;;;;;;14.95;13.45;;;;;;;;;;5053805;28;20080;-66
2022/03/16 13:09:44;;;;;;;15.02;13.43;;;;;;;;;;5034686;28;20053;-66
2022/03/16 13:12:11;;;;;;;14.60;13.10;;;;;;;;;;5053312;28;20074;-66
2022/03/16 13:14:39;;;;;;;14.25;12.70;;;;;;;;;;5053145;28;20041;-66
2022/03/16 13:17:07;;;;;;;14.38;12.98;;;;;;;;;;5052763;28;20428;-66
2022/03/16 13:19:34;;;;;;;15.23;13.02;;;;;;;;;;5052584;28;20052;-66
2022/03/16 13:22:05;;;;;;;14.75;13.23;;;;;;;;;;5052335;28;20410;-65
2022/03/16 13:24:50;;;;;;;15.82;13.95;;;;;;;;;;5034977;28;20482;-65
2022/03/16 13:27:18;;;;;;;16.17;14.50;;;;;;;;;;5047774;28;20482;-64
2022/03/16 13:29:49;;;;;;;14.55;12.98;;;;;;;;;;5028694;28;20048;-65
2022/03/16 13:32:16;;;;;;;14.93;13.43;;;;;;;;;;5045736;28;20040;-65
2022/03/16 13:34:43;;;;;;;16.25;14.65;;;;;;;;;;5052584;28;20119;-65
2022/03/16 13:37:29;;;;;;;15.68;13.98;;;;;;;;;;5053010;28;20129;-65
2022/03/16 13:40:00;;;;;;;15.93;14.30;;;;;;;;;;5051877;28;20075;-65
2022/03/16 13:42:27;;;;;;;17.65;14.73;;;;;;;;;;5050944;28;20048;-65
2022/03/16 13:44:53;;;;;;;16.38;14.68;;;;;;;;;;5048417;28;20033;-65
2022/03/16 13:47:22;;;;;;;17.23;14.23;;;;;;;;;;5035027;28;20040;-64
2022/03/16 13:49:49;;;;;;;16.42;14.73;;;;;;;;;;5051758;28;20096;-62
2022/03/16 13:52:22;;;;;;;17.23;15.15;;;;;;;;;;5050471;28;20132;-66
2022/03/16 13:54:49;;;;;;;17.02;14.35;;;;;;;;;;5050864;28;20048;-63
2022/03/16 13:57:17;;;;;;;17.02;14.52;;;;;;;;;;5052829;28;20529;-64
2022/03/16 13:59:52;;;;;;;15.85;14.23;;;;;;;;;;5052847;28;20029;-64
2022/03/16 14:02:28;;;;;;;15.30;13.75;;;;;;;;;;5052703;28;20037;-65
2022/03/16 14:04:58;;;;;;;18.75;14.70;;;;;;;;;;5052278;28;20482;-63
2022/03/16 14:07:30;;;;;;;16.00;14.30;;;;;;;;;;5052685;28;20044;-63
2022/03/16 14:10:00;;;;;;;17.00;13.75;;;;;;;;;;5052360;28;20052;-63
2022/03/16 14:12:27;;;;;;;18.00;15.35;;;;;;;;;;5052636;28;20029;-63
2022/03/16 14:15:00;;;;;;;18.52;15.75;;;;;;;;;;5053004;28;20041;-63
2022/03/16 14:18:01;;;;;;;17.13;15.30;;;;;;;;;;5053509;28;20079;-63
2022/03/16 14:20:28;;;;;;;17.67;15.57;;;;;;;;;;5009336;28;20098;-63
2022/03/16 14:22:54;;;;;;;17.52;15.13;;;;;;;;;;5049670;28;20037;-63
2022/03/16 14:25:28;;;;;;;16.98;14.57;;;;;;;;;;5044007;28;20047;-62
2022/03/16 14:27:56;;;;;;;17.08;14.07;;;;;;;;;;5048161;28;20037;-63
2022/03/16 14:30:23;;;;;;;18.15;14.65;;;;;;;;;;5052586;28;20036;-63
2022/03/16 14:32:49;;;;;;;19.13;14.48;;;;;;;;;;5052207;28;20163;-64
2022/03/16 14:35:19;;;;;;;16.70;14.45;;;;;;;;;;5052707;28;20547;-64
2022/03/16 14:37:46;;;;;;;17.42;14.80;;;;;;;;;;5052892;28;20390;-63
2022/03/16 14:40:13;;;;;;;19.05;15.32;;;;;;;;;;5049611;28;20045;-62
2022/03/16 14:42:40;;;;;;;20.60;15.63;;;;;;;;;;5032996;28;20045;-64
2022/03/16 14:45:09;;;;;;;18.85;15.13;;;;;;;;;;5043682;28;20489;-64